Startpagina
METAR-TAF:

METAR-TAF

Vliegvelden :

Francistown Airport

Francistown, Botswana

breedte: 21-13S, lengte: 027-30E, hoogte: 1001 m

Actueel weer

Dit bericht is 5 uur en het 38 minuten geleden gemaakt, om 19:00 UTC
Wind 4 kt uit het zuidoosten
Temperatuur 11°C
Vochtigheid 58%
Druk 1028 hPa
Zicht 10 km of meer
geen wolken onder 1500 m en geen cumulonimbus

METAR: FBFT 151900Z 14004KT CAVOK 11/03 Q1028

Tijdstip: 02:38 (00:38 UTC)

Verwachting

Dit bericht is 3 uur en het 38 minuten geleden gemaakt, om 21:00 UTC
Verwachting geldig van 16 om 00 UTC tot 16 om 09 UTC
Wind 5 kt uit het oosten
Zicht 10 km of meer
geen wolken onder 1500 m en geen cumulonimbus

TAF: FBFT 152100Z 1600/1609 10005KT CAVOK

Waarnemingen en weersverwachtingen van meer dan 4000 vliegvelden (METAR en TAF).

De beschikbare stations zijn de gele en rode punten op de kaart.

Ga met uw muis naar het station om de naam te zien.

Klik dan om waarnemingen en weersverwachtingen te zien.

kaart wijzigen: klik op de groene knoppen met een zwart kruis om in te zoomen, op de groene knop met een streepje om uit te zoomen of op de groene pijlen voor aangrenzende kaarten.


METAR-TAF: